Terminal Aerodrome Forecast
Issued by NWS

Home | Current Version | Previous Version | Text Only | Print | Product List | Glossary On
Versions: 1 2 3 4 5 6 7 8 9 10 11 12
000
FTPQ31 PGUM 122322
TAFGUM
TAF

TAF
PTKK 122322Z 1300/1324 09011KT P6SM VCSH SCT012 SCT040 BKN120
      TEMPO 1300/1303 3SM TSRA SCT012CB BKN025=

USA.gov is the U.S. government's official web portal to all federal, state and local government web resources and services.